sensor_id;sensor_type;location;lat;lon;timestamp;temperature;humidity
16154;DHT22;8182;55.648;13.208;2023-07-13T00:00:11;15.90;99.90
16154;DHT22;8182;55.648;13.208;2023-07-13T00:02:41;15.90;99.90
16154;DHT22;8182;55.648;13.208;2023-07-13T00:05:08;15.90;99.90
16154;DHT22;8182;55.648;13.208;2023-07-13T00:07:36;15.80;99.90
16154;DHT22;8182;55.648;13.208;2023-07-13T00:10:04;15.80;99.90
16154;DHT22;8182;55.648;13.208;2023-07-13T00:12:36;15.70;99.90
16154;DHT22;8182;55.648;13.208;2023-07-13T00:15:07;15.70;99.90
16154;DHT22;8182;55.648;13.208;2023-07-13T00:17:36;15.70;99.90
16154;DHT22;8182;55.648;13.208;2023-07-13T00:20:05;15.70;99.90
16154;DHT22;8182;55.648;13.208;2023-07-13T00:22:33;15.70;99.90
16154;DHT22;8182;55.648;13.208;2023-07-13T00:25:01;15.70;99.90
16154;DHT22;8182;55.648;13.208;2023-07-13T00:27:28;15.60;99.90
16154;DHT22;8182;55.648;13.208;2023-07-13T00:29:59;15.60;99.90
16154;DHT22;8182;55.648;13.208;2023-07-13T00:32:26;15.60;99.90
16154;DHT22;8182;55.648;13.208;2023-07-13T00:34:53;15.60;99.90
16154;DHT22;8182;55.648;13.208;2023-07-13T00:37:19;15.60;99.90
16154;DHT22;8182;55.648;13.208;2023-07-13T00:39:46;15.50;99.90
16154;DHT22;8182;55.648;13.208;2023-07-13T00:42:14;15.50;99.90
16154;DHT22;8182;55.648;13.208;2023-07-13T00:44:41;15.50;99.90
16154;DHT22;8182;55.648;13.208;2023-07-13T00:47:09;15.40;99.90
16154;DHT22;8182;55.648;13.208;2023-07-13T00:49:36;15.30;99.90
16154;DHT22;8182;55.648;13.208;2023-07-13T00:52:06;15.30;99.90
16154;DHT22;8182;55.648;13.208;2023-07-13T00:54:38;15.30;99.90
16154;DHT22;8182;55.648;13.208;2023-07-13T00:57:09;15.40;99.90
16154;DHT22;8182;55.648;13.208;2023-07-13T00:59:41;15.40;99.90
16154;DHT22;8182;55.648;13.208;2023-07-13T01:02:10;15.40;99.90
16154;DHT22;8182;55.648;13.208;2023-07-13T01:04:38;15.40;99.90
16154;DHT22;8182;55.648;13.208;2023-07-13T01:07:06;15.40;99.90
16154;DHT22;8182;55.648;13.208;2023-07-13T01:09:33;15.40;99.90
16154;DHT22;8182;55.648;13.208;2023-07-13T01:12:00;15.30;99.90
16154;DHT22;8182;55.648;13.208;2023-07-13T01:14:27;15.40;99.90
16154;DHT22;8182;55.648;13.208;2023-07-13T01:16:54;15.30;99.90
16154;DHT22;8182;55.648;13.208;2023-07-13T01:19:33;15.30;99.90
16154;DHT22;8182;55.648;13.208;2023-07-13T01:22:05;15.30;99.90
16154;DHT22;8182;55.648;13.208;2023-07-13T01:24:34;15.30;99.90
16154;DHT22;8182;55.648;13.208;2023-07-13T01:27:01;15.30;99.90
16154;DHT22;8182;55.648;13.208;2023-07-13T01:29:29;15.30;99.90
16154;DHT22;8182;55.648;13.208;2023-07-13T01:31:56;15.20;99.90
16154;DHT22;8182;55.648;13.208;2023-07-13T01:34:23;15.10;99.90
16154;DHT22;8182;55.648;13.208;2023-07-13T01:36:50;15.00;99.90
16154;DHT22;8182;55.648;13.208;2023-07-13T01:39:21;14.90;99.90
16154;DHT22;8182;55.648;13.208;2023-07-13T01:41:48;15.00;99.90
16154;DHT22;8182;55.648;13.208;2023-07-13T01:44:15;14.90;99.90
16154;DHT22;8182;55.648;13.208;2023-07-13T01:46:42;15.00;99.90
16154;DHT22;8182;55.648;13.208;2023-07-13T01:49:08;14.90;99.90
16154;DHT22;8182;55.648;13.208;2023-07-13T01:51:36;14.90;99.90
16154;DHT22;8182;55.648;13.208;2023-07-13T01:54:03;14.80;99.90
16154;DHT22;8182;55.648;13.208;2023-07-13T01:56:31;14.80;99.90
16154;DHT22;8182;55.648;13.208;2023-07-13T01:58:58;14.80;99.90
16154;DHT22;8182;55.648;13.208;2023-07-13T02:01:25;14.70;99.90
16154;DHT22;8182;55.648;13.208;2023-07-13T02:03:53;14.60;99.90
16154;DHT22;8182;55.648;13.208;2023-07-13T02:06:20;14.70;99.90
16154;DHT22;8182;55.648;13.208;2023-07-13T02:08:47;14.60;99.90
16154;DHT22;8182;55.648;13.208;2023-07-13T02:11:14;14.60;99.90
16154;DHT22;8182;55.648;13.208;2023-07-13T02:13:42;14.60;99.90
16154;DHT22;8182;55.648;13.208;2023-07-13T02:16:09;14.60;99.90
16154;DHT22;8182;55.648;13.208;2023-07-13T02:18:36;14.60;99.90
16154;DHT22;8182;55.648;13.208;2023-07-13T02:21:03;14.50;99.90
16154;DHT22;8182;55.648;13.208;2023-07-13T02:23:30;14.50;99.90
16154;DHT22;8182;55.648;13.208;2023-07-13T02:25:58;14.50;99.90
16154;DHT22;8182;55.648;13.208;2023-07-13T02:28:26;14.50;99.90
16154;DHT22;8182;55.648;13.208;2023-07-13T02:30:55;14.40;99.90
16154;DHT22;8182;55.648;13.208;2023-07-13T02:33:21;14.50;99.90
16154;DHT22;8182;55.648;13.208;2023-07-13T02:35:49;14.50;99.90
16154;DHT22;8182;55.648;13.208;2023-07-13T02:38:16;14.50;99.90
16154;DHT22;8182;55.648;13.208;2023-07-13T02:40:43;14.50;99.90
16154;DHT22;8182;55.648;13.208;2023-07-13T02:43:10;14.50;99.90
16154;DHT22;8182;55.648;13.208;2023-07-13T02:45:37;14.60;99.90
16154;DHT22;8182;55.648;13.208;2023-07-13T02:48:06;14.50;99.90
16154;DHT22;8182;55.648;13.208;2023-07-13T02:50:33;14.50;99.90
16154;DHT22;8182;55.648;13.208;2023-07-13T02:53:00;14.40;99.90
16154;DHT22;8182;55.648;13.208;2023-07-13T02:55:27;14.50;99.90
16154;DHT22;8182;55.648;13.208;2023-07-13T02:57:54;14.40;99.90
16154;DHT22;8182;55.648;13.208;2023-07-13T03:00:21;14.50;99.90
16154;DHT22;8182;55.648;13.208;2023-07-13T03:02:48;14.40;99.90
16154;DHT22;8182;55.648;13.208;2023-07-13T03:05:17;14.40;99.90
16154;DHT22;8182;55.648;13.208;2023-07-13T03:07:44;14.40;99.90
16154;DHT22;8182;55.648;13.208;2023-07-13T03:10:11;14.40;99.90
16154;DHT22;8182;55.648;13.208;2023-07-13T03:12:38;14.30;99.90
16154;DHT22;8182;55.648;13.208;2023-07-13T03:15:06;14.20;99.90
16154;DHT22;8182;55.648;13.208;2023-07-13T03:17:33;14.30;99.90
16154;DHT22;8182;55.648;13.208;2023-07-13T03:20:00;14.30;99.90
16154;DHT22;8182;55.648;13.208;2023-07-13T03:22:29;14.20;99.90
16154;DHT22;8182;55.648;13.208;2023-07-13T03:24:57;14.10;99.90
16154;DHT22;8182;55.648;13.208;2023-07-13T03:27:24;14.10;99.90
16154;DHT22;8182;55.648;13.208;2023-07-13T03:29:51;14.10;99.90
16154;DHT22;8182;55.648;13.208;2023-07-13T03:32:18;14.00;99.90
16154;DHT22;8182;55.648;13.208;2023-07-13T03:34:45;14.10;99.90
16154;DHT22;8182;55.648;13.208;2023-07-13T03:37:12;14.10;99.90
16154;DHT22;8182;55.648;13.208;2023-07-13T03:39:40;14.10;99.90
16154;DHT22;8182;55.648;13.208;2023-07-13T03:42:07;14.10;99.90
16154;DHT22;8182;55.648;13.208;2023-07-13T03:44:35;14.10;99.90
16154;DHT22;8182;55.648;13.208;2023-07-13T03:47:02;14.10;99.90
16154;DHT22;8182;55.648;13.208;2023-07-13T03:49:29;14.10;99.90
16154;DHT22;8182;55.648;13.208;2023-07-13T03:51:56;14.20;99.90
16154;DHT22;8182;55.648;13.208;2023-07-13T03:54:22;14.20;99.90
16154;DHT22;8182;55.648;13.208;2023-07-13T03:56:51;14.30;99.90
16154;DHT22;8182;55.648;13.208;2023-07-13T03:59:18;14.50;99.90
16154;DHT22;8182;55.648;13.208;2023-07-13T04:01:45;14.50;99.90
16154;DHT22;8182;55.648;13.208;2023-07-13T04:04:12;14.50;99.90
16154;DHT22;8182;55.648;13.208;2023-07-13T04:06:39;14.50;99.90
16154;DHT22;8182;55.648;13.208;2023-07-13T04:09:06;14.60;99.90
16154;DHT22;8182;55.648;13.208;2023-07-13T04:11:35;14.70;99.90
16154;DHT22;8182;55.648;13.208;2023-07-13T04:14:04;14.70;99.90
16154;DHT22;8182;55.648;13.208;2023-07-13T04:16:31;14.70;99.90
16154;DHT22;8182;55.648;13.208;2023-07-13T04:18:59;14.70;99.90
16154;DHT22;8182;55.648;13.208;2023-07-13T04:21:26;14.70;99.90
16154;DHT22;8182;55.648;13.208;2023-07-13T04:23:53;14.80;99.90
16154;DHT22;8182;55.648;13.208;2023-07-13T04:26:20;14.80;99.90
16154;DHT22;8182;55.648;13.208;2023-07-13T04:28:48;14.80;99.90
16154;DHT22;8182;55.648;13.208;2023-07-13T04:31:17;14.80;99.90
16154;DHT22;8182;55.648;13.208;2023-07-13T04:33:44;14.90;99.90
16154;DHT22;8182;55.648;13.208;2023-07-13T04:36:11;14.90;99.90
16154;DHT22;8182;55.648;13.208;2023-07-13T04:38:38;14.90;99.90
16154;DHT22;8182;55.648;13.208;2023-07-13T04:41:07;15.00;99.90
16154;DHT22;8182;55.648;13.208;2023-07-13T04:43:35;15.00;99.90
16154;DHT22;8182;55.648;13.208;2023-07-13T04:46:05;15.10;99.90
16154;DHT22;8182;55.648;13.208;2023-07-13T04:48:34;15.10;99.90
16154;DHT22;8182;55.648;13.208;2023-07-13T04:51:01;15.10;99.90
16154;DHT22;8182;55.648;13.208;2023-07-13T04:53:30;15.20;99.90
16154;DHT22;8182;55.648;13.208;2023-07-13T04:55:58;15.20;99.90
16154;DHT22;8182;55.648;13.208;2023-07-13T04:58:25;15.30;99.90
16154;DHT22;8182;55.648;13.208;2023-07-13T05:00:53;15.40;99.90
16154;DHT22;8182;55.648;13.208;2023-07-13T05:03:19;15.50;99.90
16154;DHT22;8182;55.648;13.208;2023-07-13T05:05:56;15.60;99.90
16154;DHT22;8182;55.648;13.208;2023-07-13T05:08:23;15.70;99.90
16154;DHT22;8182;55.648;13.208;2023-07-13T05:10:51;15.80;99.90
16154;DHT22;8182;55.648;13.208;2023-07-13T05:13:18;15.90;99.90
16154;DHT22;8182;55.648;13.208;2023-07-13T05:15:45;16.00;99.90
16154;DHT22;8182;55.648;13.208;2023-07-13T05:18:12;16.10;99.90
16154;DHT22;8182;55.648;13.208;2023-07-13T05:20:39;16.30;99.90
16154;DHT22;8182;55.648;13.208;2023-07-13T05:23:07;16.50;99.90
16154;DHT22;8182;55.648;13.208;2023-07-13T05:25:34;16.70;99.90
16154;DHT22;8182;55.648;13.208;2023-07-13T05:28:01;16.90;99.90
16154;DHT22;8182;55.648;13.208;2023-07-13T05:30:28;16.90;99.90
16154;DHT22;8182;55.648;13.208;2023-07-13T05:32:55;17.20;99.90
16154;DHT22;8182;55.648;13.208;2023-07-13T05:35:22;17.50;99.90
16154;DHT22;8182;55.648;13.208;2023-07-13T05:37:49;17.60;99.90
16154;DHT22;8182;55.648;13.208;2023-07-13T05:40:17;17.60;99.90
16154;DHT22;8182;55.648;13.208;2023-07-13T05:42:44;17.70;99.90
16154;DHT22;8182;55.648;13.208;2023-07-13T05:45:11;17.90;99.90
16154;DHT22;8182;55.648;13.208;2023-07-13T05:47:38;18.10;99.90
16154;DHT22;8182;55.648;13.208;2023-07-13T05:50:06;18.20;99.90
16154;DHT22;8182;55.648;13.208;2023-07-13T05:52:33;18.30;99.90
16154;DHT22;8182;55.648;13.208;2023-07-13T05:55:00;18.30;99.90
16154;DHT22;8182;55.648;13.208;2023-07-13T05:57:29;18.50;99.90
16154;DHT22;8182;55.648;13.208;2023-07-13T05:59:56;18.50;99.90
16154;DHT22;8182;55.648;13.208;2023-07-13T06:02:23;18.50;99.90
16154;DHT22;8182;55.648;13.208;2023-07-13T06:04:51;18.50;99.90
16154;DHT22;8182;55.648;13.208;2023-07-13T06:07:18;18.40;99.90
16154;DHT22;8182;55.648;13.208;2023-07-13T06:09:45;18.30;99.90
16154;DHT22;8182;55.648;13.208;2023-07-13T06:12:12;18.30;99.90
16154;DHT22;8182;55.648;13.208;2023-07-13T06:14:40;18.20;99.90
16154;DHT22;8182;55.648;13.208;2023-07-13T06:17:07;18.00;99.90
16154;DHT22;8182;55.648;13.208;2023-07-13T06:19:34;18.00;99.90
16154;DHT22;8182;55.648;13.208;2023-07-13T06:22:02;18.20;99.90
16154;DHT22;8182;55.648;13.208;2023-07-13T06:24:29;18.40;99.90
16154;DHT22;8182;55.648;13.208;2023-07-13T06:26:56;18.70;99.90
16154;DHT22;8182;55.648;13.208;2023-07-13T06:29:22;18.90;99.90
16154;DHT22;8182;55.648;13.208;2023-07-13T06:31:51;19.10;99.90
16154;DHT22;8182;55.648;13.208;2023-07-13T06:34:18;19.30;99.90
16154;DHT22;8182;55.648;13.208;2023-07-13T06:36:51;19.30;99.90
16154;DHT22;8182;55.648;13.208;2023-07-13T06:39:18;19.40;99.90
16154;DHT22;8182;55.648;13.208;2023-07-13T06:41:45;19.40;99.90
16154;DHT22;8182;55.648;13.208;2023-07-13T06:44:12;19.10;99.90
16154;DHT22;8182;55.648;13.208;2023-07-13T06:46:39;19.00;99.90
16154;DHT22;8182;55.648;13.208;2023-07-13T06:49:08;18.90;99.90
16154;DHT22;8182;55.648;13.208;2023-07-13T06:51:35;18.80;99.90
16154;DHT22;8182;55.648;13.208;2023-07-13T06:54:02;18.70;99.90
16154;DHT22;8182;55.648;13.208;2023-07-13T06:56:29;18.70;99.90
16154;DHT22;8182;55.648;13.208;2023-07-13T06:58:56;18.60;99.90
16154;DHT22;8182;55.648;13.208;2023-07-13T07:01:24;18.60;99.90
16154;DHT22;8182;55.648;13.208;2023-07-13T07:03:51;18.60;99.90
16154;DHT22;8182;55.648;13.208;2023-07-13T07:06:20;18.60;99.90
16154;DHT22;8182;55.648;13.208;2023-07-13T07:08:49;18.60;99.90
16154;DHT22;8182;55.648;13.208;2023-07-13T07:11:19;18.60;99.90
16154;DHT22;8182;55.648;13.208;2023-07-13T07:13:47;18.60;99.90
16154;DHT22;8182;55.648;13.208;2023-07-13T07:16:14;18.70;99.90
16154;DHT22;8182;55.648;13.208;2023-07-13T07:18:41;18.80;99.90
16154;DHT22;8182;55.648;13.208;2023-07-13T07:21:08;18.90;99.90
16154;DHT22;8182;55.648;13.208;2023-07-13T07:23:37;19.10;99.90
16154;DHT22;8182;55.648;13.208;2023-07-13T07:26:04;19.40;99.90
16154;DHT22;8182;55.648;13.208;2023-07-13T07:28:31;19.60;99.90
16154;DHT22;8182;55.648;13.208;2023-07-13T07:30:59;19.50;99.90
16154;DHT22;8182;55.648;13.208;2023-07-13T07:33:26;19.50;99.90
16154;DHT22;8182;55.648;13.208;2023-07-13T07:35:53;19.50;99.90
16154;DHT22;8182;55.648;13.208;2023-07-13T07:38:20;19.50;99.90
16154;DHT22;8182;55.648;13.208;2023-07-13T07:40:48;19.50;99.90
16154;DHT22;8182;55.648;13.208;2023-07-13T07:43:15;19.40;99.90
16154;DHT22;8182;55.648;13.208;2023-07-13T07:45:44;19.30;99.90
16154;DHT22;8182;55.648;13.208;2023-07-13T07:48:11;19.10;99.90
16154;DHT22;8182;55.648;13.208;2023-07-13T07:50:39;19.20;99.90
16154;DHT22;8182;55.648;13.208;2023-07-13T07:53:06;19.10;99.90
16154;DHT22;8182;55.648;13.208;2023-07-13T07:55:36;19.10;99.90
16154;DHT22;8182;55.648;13.208;2023-07-13T07:58:05;19.10;99.90
16154;DHT22;8182;55.648;13.208;2023-07-13T08:00:32;19.20;99.90
16154;DHT22;8182;55.648;13.208;2023-07-13T08:03:01;19.50;99.90
16154;DHT22;8182;55.648;13.208;2023-07-13T08:05:29;19.50;99.90
16154;DHT22;8182;55.648;13.208;2023-07-13T08:07:56;19.80;99.90
16154;DHT22;8182;55.648;13.208;2023-07-13T08:10:23;20.00;99.90
16154;DHT22;8182;55.648;13.208;2023-07-13T08:12:50;20.20;99.90
16154;DHT22;8182;55.648;13.208;2023-07-13T08:15:18;20.40;99.90
16154;DHT22;8182;55.648;13.208;2023-07-13T08:17:47;20.20;99.90
16154;DHT22;8182;55.648;13.208;2023-07-13T08:20:14;20.20;99.90
16154;DHT22;8182;55.648;13.208;2023-07-13T08:22:41;20.50;99.90
16154;DHT22;8182;55.648;13.208;2023-07-13T08:25:08;20.70;99.90
16154;DHT22;8182;55.648;13.208;2023-07-13T08:27:35;20.90;99.90
16154;DHT22;8182;55.648;13.208;2023-07-13T08:30:03;21.00;99.90
16154;DHT22;8182;55.648;13.208;2023-07-13T08:32:36;21.50;99.90
16154;DHT22;8182;55.648;13.208;2023-07-13T08:35:04;21.80;99.90
16154;DHT22;8182;55.648;13.208;2023-07-13T08:37:32;22.10;99.90
16154;DHT22;8182;55.648;13.208;2023-07-13T08:39:59;21.90;99.90
16154;DHT22;8182;55.648;13.208;2023-07-13T08:42:42;21.80;99.90
16154;DHT22;8182;55.648;13.208;2023-07-13T08:45:17;21.90;99.90
16154;DHT22;8182;55.648;13.208;2023-07-13T08:47:51;21.90;99.90
16154;DHT22;8182;55.648;13.208;2023-07-13T08:50:23;22.30;99.90
16154;DHT22;8182;55.648;13.208;2023-07-13T08:52:53;22.70;99.90
16154;DHT22;8182;55.648;13.208;2023-07-13T08:55:26;22.80;99.90
16154;DHT22;8182;55.648;13.208;2023-07-13T08:58:01;22.80;99.90
16154;DHT22;8182;55.648;13.208;2023-07-13T09:00:36;22.70;99.90
16154;DHT22;8182;55.648;13.208;2023-07-13T09:03:12;22.40;99.90
16154;DHT22;8182;55.648;13.208;2023-07-13T09:05:49;22.00;99.90
16154;DHT22;8182;55.648;13.208;2023-07-13T09:08:31;21.20;99.90
16154;DHT22;8182;55.648;13.208;2023-07-13T09:11:04;21.00;99.90
16154;DHT22;8182;55.648;13.208;2023-07-13T09:13:45;20.90;99.90
16154;DHT22;8182;55.648;13.208;2023-07-13T09:16:15;20.90;99.90
16154;DHT22;8182;55.648;13.208;2023-07-13T09:18:46;20.90;99.90
16154;DHT22;8182;55.648;13.208;2023-07-13T09:21:17;20.90;99.90
16154;DHT22;8182;55.648;13.208;2023-07-13T09:23:45;21.00;99.90
16154;DHT22;8182;55.648;13.208;2023-07-13T09:26:16;21.20;99.90
16154;DHT22;8182;55.648;13.208;2023-07-13T09:28:47;21.10;99.90
16154;DHT22;8182;55.648;13.208;2023-07-13T09:31:17;21.20;99.90
16154;DHT22;8182;55.648;13.208;2023-07-13T09:33:48;21.40;99.90
16154;DHT22;8182;55.648;13.208;2023-07-13T09:36:21;21.70;99.90
16154;DHT22;8182;55.648;13.208;2023-07-13T09:38:52;21.90;99.90
16154;DHT22;8182;55.648;13.208;2023-07-13T09:41:28;21.80;99.90
16154;DHT22;8182;55.648;13.208;2023-07-13T09:44:17;21.20;99.90
16154;DHT22;8182;55.648;13.208;2023-07-13T09:46:51;20.30;99.90
16154;DHT22;8182;55.648;13.208;2023-07-13T09:49:23;20.10;99.90
16154;DHT22;8182;55.648;13.208;2023-07-13T09:51:58;20.50;99.90
16154;DHT22;8182;55.648;13.208;2023-07-13T09:54:25;21.30;99.90
16154;DHT22;8182;55.648;13.208;2023-07-13T09:56:56;21.60;99.90
16154;DHT22;8182;55.648;13.208;2023-07-13T09:59:26;22.70;99.90
16154;DHT22;8182;55.648;13.208;2023-07-13T10:01:54;23.00;99.90
16154;DHT22;8182;55.648;13.208;2023-07-13T10:04:27;23.10;99.90
16154;DHT22;8182;55.648;13.208;2023-07-13T10:07:05;22.90;99.90
16154;DHT22;8182;55.648;13.208;2023-07-13T10:09:32;23.40;99.90
16154;DHT22;8182;55.648;13.208;2023-07-13T10:11:59;23.50;99.90
16154;DHT22;8182;55.648;13.208;2023-07-13T10:14:27;23.90;99.90
16154;DHT22;8182;55.648;13.208;2023-07-13T10:16:58;24.40;99.90
16154;DHT22;8182;55.648;13.208;2023-07-13T10:19:32;24.60;99.90
16154;DHT22;8182;55.648;13.208;2023-07-13T10:22:02;24.90;99.90
16154;DHT22;8182;55.648;13.208;2023-07-13T10:24:38;24.90;99.90
16154;DHT22;8182;55.648;13.208;2023-07-13T10:27:12;25.10;99.90
16154;DHT22;8182;55.648;13.208;2023-07-13T10:29:45;25.10;99.90
16154;DHT22;8182;55.648;13.208;2023-07-13T10:32:13;24.70;99.90
16154;DHT22;8182;55.648;13.208;2023-07-13T10:34:43;24.50;99.90
16154;DHT22;8182;55.648;13.208;2023-07-13T10:37:18;24.90;99.90
16154;DHT22;8182;55.648;13.208;2023-07-13T10:39:46;24.40;99.90
16154;DHT22;8182;55.648;13.208;2023-07-13T10:42:18;24.10;99.90
16154;DHT22;8182;55.648;13.208;2023-07-13T10:44:48;23.60;99.90
16154;DHT22;8182;55.648;13.208;2023-07-13T10:47:16;23.20;99.90
16154;DHT22;8182;55.648;13.208;2023-07-13T10:49:53;23.00;99.90
16154;DHT22;8182;55.648;13.208;2023-07-13T10:52:44;22.50;99.90
16154;DHT22;8182;55.648;13.208;2023-07-13T10:55:31;22.00;99.90
16154;DHT22;8182;55.648;13.208;2023-07-13T10:58:01;21.70;99.90
16154;DHT22;8182;55.648;13.208;2023-07-13T11:00:31;21.60;99.90
16154;DHT22;8182;55.648;13.208;2023-07-13T11:03:00;21.50;99.90
16154;DHT22;8182;55.648;13.208;2023-07-13T11:05:32;21.50;99.90
16154;DHT22;8182;55.648;13.208;2023-07-13T11:08:13;21.90;99.90
16154;DHT22;8182;55.648;13.208;2023-07-13T11:10:48;21.80;99.90
16154;DHT22;8182;55.648;13.208;2023-07-13T11:16:41;22.40;99.90
16154;DHT22;8182;55.648;13.208;2023-07-13T11:19:26;22.20;99.90
16154;DHT22;8182;55.648;13.208;2023-07-13T11:22:12;22.00;99.90
16154;DHT22;8182;55.648;13.208;2023-07-13T11:25:20;22.30;99.90
16154;DHT22;8182;55.648;13.208;2023-07-13T11:27:51;22.60;99.90
16154;DHT22;8182;55.648;13.208;2023-07-13T11:30:32;22.70;99.90
16154;DHT22;8182;55.648;13.208;2023-07-13T11:33:11;22.80;99.90
16154;DHT22;8182;55.648;13.208;2023-07-13T11:35:45;22.80;99.90
16154;DHT22;8182;55.648;13.208;2023-07-13T11:38:17;22.80;99.90
16154;DHT22;8182;55.648;13.208;2023-07-13T11:40:46;22.70;99.90
16154;DHT22;8182;55.648;13.208;2023-07-13T11:43:14;22.80;99.90
16154;DHT22;8182;55.648;13.208;2023-07-13T11:45:42;22.90;99.90
16154;DHT22;8182;55.648;13.208;2023-07-13T11:48:20;22.90;99.90
16154;DHT22;8182;55.648;13.208;2023-07-13T11:50:57;23.00;99.90
16154;DHT22;8182;55.648;13.208;2023-07-13T11:53:29;23.10;99.90
16154;DHT22;8182;55.648;13.208;2023-07-13T11:55:57;23.10;99.90
16154;DHT22;8182;55.648;13.208;2023-07-13T11:58:25;23.20;99.90
16154;DHT22;8182;55.648;13.208;2023-07-13T12:00:55;23.20;99.90
16154;DHT22;8182;55.648;13.208;2023-07-13T12:03:25;23.10;99.90
16154;DHT22;8182;55.648;13.208;2023-07-13T12:06:00;23.00;99.90
16154;DHT22;8182;55.648;13.208;2023-07-13T12:08:29;23.10;99.90
16154;DHT22;8182;55.648;13.208;2023-07-13T12:10:59;23.10;99.90
16154;DHT22;8182;55.648;13.208;2023-07-13T12:13:27;23.10;99.90
16154;DHT22;8182;55.648;13.208;2023-07-13T12:15:56;23.10;99.90
16154;DHT22;8182;55.648;13.208;2023-07-13T12:18:30;23.00;99.90
16154;DHT22;8182;55.648;13.208;2023-07-13T12:20:58;23.00;99.90
16154;DHT22;8182;55.648;13.208;2023-07-13T12:23:30;23.20;99.90
16154;DHT22;8182;55.648;13.208;2023-07-13T12:26:00;23.20;99.90
16154;DHT22;8182;55.648;13.208;2023-07-13T12:28:33;23.30;99.90
16154;DHT22;8182;55.648;13.208;2023-07-13T12:31:02;23.20;99.90
16154;DHT22;8182;55.648;13.208;2023-07-13T12:33:30;23.40;99.90
16154;DHT22;8182;55.648;13.208;2023-07-13T12:36:01;23.20;99.90
16154;DHT22;8182;55.648;13.208;2023-07-13T12:38:31;23.50;99.90
16154;DHT22;8182;55.648;13.208;2023-07-13T12:40:59;23.50;99.90
16154;DHT22;8182;55.648;13.208;2023-07-13T12:43:30;23.40;99.90
16154;DHT22;8182;55.648;13.208;2023-07-13T12:46:04;23.40;99.90
16154;DHT22;8182;55.648;13.208;2023-07-13T12:48:38;23.30;99.90
16154;DHT22;8182;55.648;13.208;2023-07-13T12:51:10;23.20;99.90
16154;DHT22;8182;55.648;13.208;2023-07-13T12:53:41;23.40;99.90
16154;DHT22;8182;55.648;13.208;2023-07-13T12:56:18;23.40;99.90
16154;DHT22;8182;55.648;13.208;2023-07-13T12:58:47;23.60;99.90
16154;DHT22;8182;55.648;13.208;2023-07-13T13:01:20;23.40;99.90
16154;DHT22;8182;55.648;13.208;2023-07-13T13:03:50;23.20;99.90
16154;DHT22;8182;55.648;13.208;2023-07-13T13:06:24;23.30;99.90
16154;DHT22;8182;55.648;13.208;2023-07-13T13:08:55;23.10;99.90
16154;DHT22;8182;55.648;13.208;2023-07-13T13:11:24;22.80;99.90
16154;DHT22;8182;55.648;13.208;2023-07-13T13:13:52;22.90;99.90
16154;DHT22;8182;55.648;13.208;2023-07-13T13:16:23;22.90;99.90
16154;DHT22;8182;55.648;13.208;2023-07-13T13:18:50;23.00;99.90
16154;DHT22;8182;55.648;13.208;2023-07-13T13:21:18;22.80;99.90
16154;DHT22;8182;55.648;13.208;2023-07-13T13:23:45;22.90;99.90
16154;DHT22;8182;55.648;13.208;2023-07-13T13:26:15;23.10;99.90
16154;DHT22;8182;55.648;13.208;2023-07-13T13:28:42;23.10;99.90
16154;DHT22;8182;55.648;13.208;2023-07-13T13:31:11;23.10;99.90
16154;DHT22;8182;55.648;13.208;2023-07-13T13:33:39;23.20;99.90
16154;DHT22;8182;55.648;13.208;2023-07-13T13:36:16;23.40;99.90
16154;DHT22;8182;55.648;13.208;2023-07-13T13:38:44;23.20;99.90
16154;DHT22;8182;55.648;13.208;2023-07-13T13:41:14;23.10;99.90
16154;DHT22;8182;55.648;13.208;2023-07-13T13:43:42;23.00;99.90
16154;DHT22;8182;55.648;13.208;2023-07-13T13:46:14;23.10;99.90
16154;DHT22;8182;55.648;13.208;2023-07-13T13:48:42;23.30;99.90
16154;DHT22;8182;55.648;13.208;2023-07-13T13:51:15;23.50;99.90
16154;DHT22;8182;55.648;13.208;2023-07-13T13:53:42;23.40;99.90
16154;DHT22;8182;55.648;13.208;2023-07-13T13:56:09;23.40;99.90
16154;DHT22;8182;55.648;13.208;2023-07-13T13:58:38;23.30;99.90
16154;DHT22;8182;55.648;13.208;2023-07-13T14:01:09;23.40;99.90
16154;DHT22;8182;55.648;13.208;2023-07-13T14:03:40;23.50;99.90
16154;DHT22;8182;55.648;13.208;2023-07-13T14:06:10;23.50;99.90
16154;DHT22;8182;55.648;13.208;2023-07-13T14:08:37;23.30;99.90
16154;DHT22;8182;55.648;13.208;2023-07-13T14:11:05;23.40;99.90
16154;DHT22;8182;55.648;13.208;2023-07-13T14:13:36;23.10;99.90
16154;DHT22;8182;55.648;13.208;2023-07-13T14:16:11;22.90;99.90
16154;DHT22;8182;55.648;13.208;2023-07-13T14:18:38;22.90;99.90
16154;DHT22;8182;55.648;13.208;2023-07-13T14:21:11;22.80;99.90
16154;DHT22;8182;55.648;13.208;2023-07-13T14:23:39;22.70;99.90
16154;DHT22;8182;55.648;13.208;2023-07-13T14:26:10;22.60;99.90
16154;DHT22;8182;55.648;13.208;2023-07-13T14:28:39;22.60;99.90
16154;DHT22;8182;55.648;13.208;2023-07-13T14:31:08;22.50;99.90
16154;DHT22;8182;55.648;13.208;2023-07-13T14:33:35;22.60;99.90
16154;DHT22;8182;55.648;13.208;2023-07-13T14:36:02;22.70;99.90
16154;DHT22;8182;55.648;13.208;2023-07-13T14:38:32;22.70;99.90
16154;DHT22;8182;55.648;13.208;2023-07-13T14:41:02;22.50;99.90
16154;DHT22;8182;55.648;13.208;2023-07-13T14:43:30;22.50;99.90
16154;DHT22;8182;55.648;13.208;2023-07-13T14:45:57;22.40;99.90
16154;DHT22;8182;55.648;13.208;2023-07-13T14:48:27;22.50;99.90
16154;DHT22;8182;55.648;13.208;2023-07-13T14:50:56;22.60;99.90
16154;DHT22;8182;55.648;13.208;2023-07-13T14:53:25;22.60;99.90
16154;DHT22;8182;55.648;13.208;2023-07-13T14:55:53;22.40;99.90
16154;DHT22;8182;55.648;13.208;2023-07-13T14:58:20;22.60;99.90
16154;DHT22;8182;55.648;13.208;2023-07-13T15:00:47;22.60;99.90
16154;DHT22;8182;55.648;13.208;2023-07-13T15:03:18;22.50;99.90
16154;DHT22;8182;55.648;13.208;2023-07-13T15:05:50;22.50;99.90
16154;DHT22;8182;55.648;13.208;2023-07-13T15:08:18;22.30;99.90
16154;DHT22;8182;55.648;13.208;2023-07-13T15:10:45;22.50;99.90
16154;DHT22;8182;55.648;13.208;2023-07-13T15:13:15;22.40;99.90
16154;DHT22;8182;55.648;13.208;2023-07-13T15:15:45;22.50;99.90
16154;DHT22;8182;55.648;13.208;2023-07-13T15:18:13;22.50;99.90
16154;DHT22;8182;55.648;13.208;2023-07-13T15:20:43;22.50;99.90
16154;DHT22;8182;55.648;13.208;2023-07-13T15:23:13;22.30;99.90
16154;DHT22;8182;55.648;13.208;2023-07-13T15:25:41;22.30;99.90
16154;DHT22;8182;55.648;13.208;2023-07-13T15:28:09;22.20;99.90
16154;DHT22;8182;55.648;13.208;2023-07-13T15:30:42;22.20;99.90
16154;DHT22;8182;55.648;13.208;2023-07-13T15:33:13;22.20;99.90
16154;DHT22;8182;55.648;13.208;2023-07-13T15:35:43;22.10;99.90
16154;DHT22;8182;55.648;13.208;2023-07-13T15:38:17;22.00;99.90
16154;DHT22;8182;55.648;13.208;2023-07-13T15:40:46;21.80;99.90
16154;DHT22;8182;55.648;13.208;2023-07-13T15:43:15;21.70;99.90
16154;DHT22;8182;55.648;13.208;2023-07-13T15:45:43;21.60;99.90